Time;durP1;ratioP1;P1;durP2;ratioP2;P2;SDS_P1;SDS_P2;PMS_P1;PMS_P2;Temp;Humidity;BMP_temperature;BMP_pressure;BME280_temperature;BME280_humidity;BME280_pressure;Samples;Min_cycle;Max_cycle;Signal;HPM_P1;HPM_P2
2024/04/13 00:00:41;;;;;;;4.47;1.90;;;14.60;99.90;;;;;;5370910;26;20001;-84
2024/04/13 00:03:06;;;;;;;4.78;1.80;;;14.60;99.90;;;;;;5373812;26;20004;-84
2024/04/13 00:05:32;;;;;;;5.10;2.22;;;14.60;99.90;;;;;;5376739;26;20330;-84
2024/04/13 00:07:58;;;;;;;4.03;1.92;;;14.60;99.90;;;;;;5377857;26;20046;-84
2024/04/13 00:10:26;;;;;;;5.88;2.70;;;14.50;99.90;;;;;;5361635;26;20040;-84
2024/04/13 00:12:53;;;;;;;7.85;2.63;;;14.50;99.90;;;;;;5377766;26;19997;-84
2024/04/13 00:15:18;;;;;;;6.05;2.95;;;14.40;99.90;;;;;;5358058;26;20004;-84
2024/04/13 00:17:44;;;;;;;6.97;3.00;;;14.40;99.90;;;;;;5373162;26;20019;-84
2024/04/13 00:20:10;;;;;;;8.27;3.08;;;14.40;99.90;;;;;;5374439;26;20004;-84
2024/04/13 00:22:37;;;;;;;3.67;2.47;;;14.40;99.90;;;;;;5366368;26;19996;-84
2024/04/13 00:25:03;;;;;;;7.63;3.00;;;14.40;99.90;;;;;;5379627;26;19996;-84
2024/04/13 00:27:29;;;;;;;5.90;2.50;;;14.40;99.90;;;;;;5365326;26;20318;-84
2024/04/13 00:29:54;;;;;;;5.40;2.08;;;14.40;99.90;;;;;;5378147;26;19997;-84
2024/04/13 00:32:20;;;;;;;6.82;1.95;;;14.40;99.90;;;;;;5371912;26;20008;-84
2024/04/13 00:34:47;;;;;;;4.68;2.17;;;14.40;99.90;;;;;;5373985;26;20000;-83
2024/04/13 00:37:13;;;;;;;8.60;2.38;;;14.40;99.90;;;;;;5359800;26;20353;-84
2024/04/13 00:39:39;;;;;;;7.03;2.20;;;14.50;99.90;;;;;;5358689;26;20000;-84
2024/04/13 00:42:05;;;;;;;5.47;2.15;;;14.50;99.90;;;;;;5375364;26;20001;-84
2024/04/13 00:44:30;;;;;;;6.18;2.15;;;14.50;99.90;;;;;;5363754;26;19996;-84
2024/04/13 00:47:05;;;;;;;5.18;1.83;;;14.50;99.90;;;;;;5380701;26;19996;-84
2024/04/13 00:49:37;;;;;;;5.60;2.30;;;14.50;99.90;;;;;;5376803;26;20459;-85
2024/04/13 00:52:05;;;;;;;4.03;2.03;;;14.40;99.90;;;;;;5365870;26;20000;-85
2024/04/13 00:54:32;;;;;;;5.03;2.38;;;14.40;99.90;;;;;;5380037;26;20011;-84
2024/04/13 00:56:58;;;;;;;3.35;2.08;;;14.40;99.90;;;;;;5364908;26;20020;-84
2024/04/13 00:59:25;;;;;;;6.35;2.47;;;14.40;99.90;;;;;;5364159;26;19997;-84
2024/04/13 01:01:52;;;;;;;5.65;2.50;;;14.30;99.90;;;;;;5378523;26;20046;-84
2024/04/13 01:04:18;;;;;;;6.32;2.47;;;14.30;99.90;;;;;;5349975;26;20011;-84
2024/04/13 01:06:45;;;;;;;5.28;2.45;;;14.30;99.90;;;;;;5359763;26;20008;-84
2024/04/13 01:09:14;;;;;;;3.92;2.25;;;14.30;99.90;;;;;;5372135;26;20001;-84
2024/04/13 01:11:41;;;;;;;7.22;2.67;;;14.30;99.90;;;;;;5352277;26;20445;-84
2024/04/13 01:14:08;;;;;;;3.92;2.50;;;14.20;99.90;;;;;;5366439;26;20016;-84
2024/04/13 01:16:35;;;;;;;7.18;3.15;;;14.10;99.90;;;;;;5351373;26;19997;-84
2024/04/13 01:19:01;;;;;;;5.05;2.65;;;14.10;99.90;;;;;;5364826;26;20004;-84
2024/04/13 01:21:26;;;;;;;5.57;3.00;;;14.10;99.90;;;;;;5376119;26;19996;-84
2024/04/13 01:24:12;;;;;;;5.55;2.17;;;14.00;99.90;;;;;;5377046;26;20005;-84
2024/04/13 01:26:38;;;;;;;4.97;2.67;;;14.00;99.90;;;;;;5378944;26;20418;-84
2024/04/13 01:29:07;;;;;;;4.78;2.35;;;14.00;99.90;;;;;;5374443;26;20009;-84
2024/04/13 01:31:35;;;;;;;5.45;2.85;;;14.00;99.90;;;;;;5374832;26;20015;-84
2024/04/13 01:34:02;;;;;;;6.53;2.17;;;14.00;99.90;;;;;;5369707;26;20013;-84
2024/04/13 01:36:36;;;;;;;5.93;2.47;;;13.90;99.90;;;;;;5358838;26;20032;-84
2024/04/13 01:39:20;;;;;;;4.07;2.00;;;13.90;99.90;;;;;;5363300;26;20024;-84
2024/04/13 01:41:51;;;;;;;5.80;2.30;;;13.90;99.90;;;;;;5381736;26;20000;-84
2024/04/13 01:44:17;;;;;;;8.30;2.45;;;13.90;99.90;;;;;;5379612;26;19996;-84
2024/04/13 01:46:43;;;;;;;6.65;2.90;;;13.90;99.90;;;;;;5369172;26;20000;-84
2024/04/13 01:49:08;;;;;;;4.90;2.13;;;13.80;99.90;;;;;;5373964;26;20446;-84
2024/04/13 01:51:34;;;;;;;5.32;2.50;;;13.90;99.90;;;;;;5373717;26;20000;-84
2024/04/13 01:54:00;;;;;;;5.72;2.47;;;13.80;99.90;;;;;;5379071;26;20001;-85
2024/04/13 01:56:27;;;;;;;6.53;2.75;;;13.80;99.90;;;;;;5373470;26;20003;-85
2024/04/13 01:58:53;;;;;;;6.32;2.63;;;13.80;99.90;;;;;;5378657;26;20004;-85
2024/04/13 02:01:20;;;;;;;5.85;2.95;;;13.80;99.90;;;;;;5370619;26;20008;-85
2024/04/13 02:03:46;;;;;;;8.60;3.00;;;13.80;99.90;;;;;;5375340;26;19996;-85
2024/04/13 02:06:12;;;;;;;6.53;2.75;;;13.70;99.90;;;;;;5369203;26;20033;-85
2024/04/13 02:08:37;;;;;;;7.60;2.65;;;13.70;99.90;;;;;;5372271;26;20511;-85
2024/04/13 02:11:06;;;;;;;5.28;2.42;;;13.70;99.90;;;;;;5371612;26;20000;-85
2024/04/13 02:13:33;;;;;;;6.60;2.83;;;13.70;99.90;;;;;;5369821;26;19997;-84
2024/04/13 02:15:59;;;;;;;7.07;3.05;;;13.70;99.90;;;;;;5376398;26;20019;-85
2024/04/13 02:18:25;;;;;;;5.10;2.67;;;13.70;99.90;;;;;;5379244;26;20001;-86
2024/04/13 02:20:51;;;;;;;5.22;2.85;;;13.60;99.90;;;;;;5361820;26;20011;-85
2024/04/13 02:23:16;;;;;;;8.45;3.90;;;13.60;99.90;;;;;;5372323;26;20004;-85
2024/04/13 02:25:44;;;;;;;5.32;3.13;;;13.60;99.90;;;;;;5354115;26;20341;-85
2024/04/13 02:28:09;;;;;;;5.43;3.30;;;13.60;99.90;;;;;;5360068;26;20036;-85
2024/04/13 02:30:35;;;;;;;4.03;2.33;;;13.60;99.90;;;;;;5369513;26;20001;-85
2024/04/13 02:33:02;;;;;;;5.30;2.85;;;13.60;99.90;;;;;;5364791;26;20098;-85
2024/04/13 02:35:28;;;;;;;8.20;3.85;;;13.60;99.90;;;;;;5379929;26;20028;-85
2024/04/13 02:37:53;;;;;;;6.07;3.10;;;13.60;99.90;;;;;;5375187;26;20391;-85
2024/04/13 02:40:23;;;;;;;8.85;3.72;;;13.60;99.90;;;;;;5369595;26;20498;-85
2024/04/13 02:42:49;;;;;;;6.68;3.28;;;13.50;99.90;;;;;;5373044;26;20001;-85
2024/04/13 02:45:15;;;;;;;6.38;3.72;;;13.50;99.90;;;;;;5374742;26;20016;-85
2024/04/13 02:47:41;;;;;;;6.55;3.67;;;13.40;99.90;;;;;;5363148;26;20008;-85
2024/04/13 02:50:07;;;;;;;9.07;3.47;;;13.40;99.90;;;;;;5367310;26;20056;-85
2024/04/13 02:52:33;;;;;;;6.30;3.80;;;13.30;99.90;;;;;;5367105;26;20008;-85
2024/04/13 02:54:58;;;;;;;5.90;3.72;;;13.40;99.90;;;;;;5378025;26;20012;-85
2024/04/13 02:57:25;;;;;;;7.22;4.20;;;13.30;99.90;;;;;;5377883;26;20013;-85
2024/04/13 02:59:51;;;;;;;7.25;3.63;;;13.20;99.90;;;;;;5375379;26;20008;-85
2024/04/13 03:02:17;;;;;;;7.70;3.78;;;13.20;99.90;;;;;;5367132;26;20008;-85
2024/04/13 03:04:43;;;;;;;6.18;3.53;;;13.20;99.90;;;;;;5379899;26;20011;-85
2024/04/13 03:07:08;;;;;;;6.38;3.83;;;13.10;99.90;;;;;;5360986;26;20001;-85
2024/04/13 03:09:34;;;;;;;8.07;4.40;;;13.10;99.90;;;;;;5342757;26;20012;-85
2024/04/13 03:12:00;;;;;;;6.47;4.03;;;13.10;99.90;;;;;;5375229;26;20028;-85
2024/04/13 03:14:29;;;;;;;7.15;3.72;;;13.10;99.90;;;;;;5361259;26;20448;-85
2024/04/13 03:16:55;;;;;;;8.30;3.75;;;13.00;99.90;;;;;;5354871;26;20104;-84
2024/04/13 03:19:20;;;;;;;10.32;4.28;;;13.00;99.90;;;;;;5368681;26;20000;-85
2024/04/13 03:21:46;;;;;;;6.75;4.32;;;13.00;99.90;;;;;;5380598;26;19996;-85
2024/04/13 03:24:12;;;;;;;8.43;4.57;;;12.90;99.90;;;;;;5365717;26;20000;-85
2024/04/13 03:26:37;;;;;;;6.55;3.70;;;12.90;99.90;;;;;;5376544;26;20010;-84
2024/04/13 03:29:03;;;;;;;11.65;4.50;;;12.90;99.90;;;;;;5378439;26;20008;-85
2024/04/13 03:31:29;;;;;;;7.80;4.78;;;12.80;99.90;;;;;;5381078;26;20431;-85
2024/04/13 03:33:56;;;;;;;12.50;4.90;;;12.80;99.90;;;;;;5372688;26;20001;-84
2024/04/13 03:36:22;;;;;;;9.18;4.93;;;12.80;99.90;;;;;;5364355;26;19996;-86
2024/04/13 03:38:49;;;;;;;6.65;4.47;;;12.80;99.90;;;;;;5365367;26;20019;-86
2024/04/13 03:41:14;;;;;;;10.52;4.50;;;12.70;99.90;;;;;;5358282;26;20215;-85
2024/04/13 03:43:40;;;;;;;11.15;5.25;;;12.80;99.90;;;;;;5370909;26;20062;-85
2024/04/13 03:46:06;;;;;;;6.43;4.63;;;12.70;99.90;;;;;;5370042;26;20056;-85
2024/04/13 03:48:32;;;;;;;10.35;5.22;;;12.70;99.90;;;;;;5361671;26;20477;-85
2024/04/13 03:51:01;;;;;;;9.02;4.55;;;12.70;99.90;;;;;;5364123;26;20004;-85
2024/04/13 03:53:26;;;;;;;8.35;4.57;;;12.60;99.90;;;;;;5347741;26;20456;-85
2024/04/13 03:55:52;;;;;;;7.20;4.32;;;12.70;99.90;;;;;;5378799;26;19996;-85
2024/04/13 03:58:18;;;;;;;10.27;4.55;;;12.60;99.90;;;;;;5358872;26;20445;-85
2024/04/13 04:00:43;;;;;;;10.10;5.15;;;12.60;99.90;;;;;;5370153;26;20000;-85
2024/04/13 04:03:09;;;;;;;9.90;5.03;;;12.60;99.90;;;;;;5377978;26;20015;-85
2024/04/13 04:05:34;;;;;;;10.18;4.75;;;12.60;99.90;;;;;;5359964;26;20104;-85
2024/04/13 04:08:00;;;;;;;7.40;5.07;;;12.60;99.90;;;;;;5360292;26;20075;-85
2024/04/13 04:10:26;;;;;;;9.68;5.07;;;12.50;99.90;;;;;;5396571;26;20035;-85
2024/04/13 04:12:51;;;;;;;7.20;4.70;;;12.60;99.90;;;;;;5378119;26;20003;-85
2024/04/13 04:15:17;;;;;;;9.02;5.47;;;12.60;99.90;;;;;;5370834;26;20015;-85
2024/04/13 04:17:43;;;;;;;8.02;5.03;;;12.50;99.90;;;;;;5369042;26;19992;-85
2024/04/13 04:20:08;;;;;;;7.80;5.07;;;12.50;99.90;;;;;;5350685;26;20005;-85
2024/04/13 04:22:34;;;;;;;9.95;4.80;;;12.50;99.90;;;;;;5378185;26;21155;-85
2024/04/13 04:25:00;;;;;;;8.80;5.50;;;12.50;99.90;;;;;;5371906;26;20004;-85
2024/04/13 04:27:27;;;;;;;11.80;5.40;;;12.50;99.90;;;;;;5380766;26;20015;-84
2024/04/13 04:29:53;;;;;;;10.18;5.28;;;12.40;99.90;;;;;;5363261;26;20003;-85
2024/04/13 04:32:18;;;;;;;10.05;5.00;;;12.40;99.90;;;;;;5374766;26;20449;-86
2024/04/13 04:34:44;;;;;;;8.18;4.78;;;12.40;99.90;;;;;;5365752;26;20049;-85
2024/04/13 04:37:10;;;;;;;8.10;5.00;;;12.40;99.90;;;;;;5378806;26;20449;-85
2024/04/13 04:39:35;;;;;;;9.80;5.18;;;12.40;99.90;;;;;;5376221;26;20001;-86
2024/04/13 04:42:01;;;;;;;10.00;5.97;;;12.40;99.90;;;;;;5376243;26;20036;-86
2024/04/13 04:44:28;;;;;;;8.98;5.57;;;12.40;99.90;;;;;;5355773;26;20450;-86
2024/04/13 04:46:54;;;;;;;11.98;5.95;;;12.40;99.90;;;;;;5370937;26;20000;-86
2024/04/13 04:49:19;;;;;;;12.60;5.68;;;12.40;99.90;;;;;;5374345;26;20001;-85
2024/04/13 04:51:45;;;;;;;9.85;5.90;;;12.50;99.90;;;;;;5382181;26;20007;-86
2024/04/13 04:54:10;;;;;;;10.15;6.05;;;12.50;99.90;;;;;;5381524;26;20012;-86
2024/04/13 04:56:36;;;;;;;12.45;5.93;;;12.50;99.90;;;;;;5377981;26;20035;-86
2024/04/13 04:59:01;;;;;;;13.32;6.47;;;12.50;99.90;;;;;;5376346;26;20001;-84
2024/04/13 05:01:27;;;;;;;9.07;5.70;;;12.40;99.90;;;;;;5368562;26;20008;-84
2024/04/13 05:03:52;;;;;;;9.95;5.97;;;12.50;99.90;;;;;;5379135;26;19992;-86
2024/04/13 05:06:18;;;;;;;7.78;5.72;;;12.50;99.90;;;;;;5383990;26;20011;-86
2024/04/13 05:08:47;;;;;;;8.55;5.57;;;12.50;99.90;;;;;;5380792;26;20486;-84
2024/04/13 05:11:14;;;;;;;11.07;6.10;;;12.50;99.90;;;;;;5375804;26;20196;-85
2024/04/13 05:13:40;;;;;;;9.10;6.10;;;12.50;99.90;;;;;;5375655;26;20005;-85
2024/04/13 05:16:09;;;;;;;11.98;6.32;;;12.50;99.90;;;;;;5374090;26;19996;-86
2024/04/13 05:18:37;;;;;;;11.32;6.50;;;12.60;99.90;;;;;;5349476;26;20008;-87
2024/04/13 05:21:04;;;;;;;11.13;7.07;;;12.60;99.90;;;;;;5368957;26;20015;-86
2024/04/13 05:23:29;;;;;;;10.95;5.88;;;12.60;99.90;;;;;;5372294;26;20573;-86
2024/04/13 05:25:55;;;;;;;10.85;7.20;;;12.70;99.90;;;;;;5375531;26;20012;-86
2024/04/13 05:28:22;;;;;;;11.68;6.57;;;12.70;99.90;;;;;;5362212;26;20044;-86
2024/04/13 05:30:56;;;;;;;12.23;7.20;;;12.70;99.90;;;;;;5369807;26;20333;-86
2024/04/13 05:33:30;;;;;;;14.15;7.57;;;12.80;99.90;;;;;;5381318;26;20011;-85
2024/04/13 05:35:56;;;;;;;12.60;6.97;;;12.90;99.90;;;;;;5378520;26;20274;-85
2024/04/13 05:38:22;;;;;;;12.63;7.60;;;12.90;99.90;;;;;;5377090;26;20428;-85
2024/04/13 05:40:50;;;;;;;14.20;7.15;;;12.90;99.90;;;;;;5371487;26;20341;-84
2024/04/13 05:43:16;;;;;;;11.77;7.85;;;13.00;99.90;;;;;;5374704;26;20379;-83
2024/04/13 05:45:43;;;;;;;13.25;8.98;;;13.00;99.90;;;;;;5381163;26;20073;-85
2024/04/13 05:48:09;;;;;;;11.82;8.27;;;13.10;99.90;;;;;;5379506;26;20032;-85
2024/04/13 05:50:34;;;;;;;13.43;9.00;;;13.20;99.90;;;;;;5379309;26;20016;-86
2024/04/13 05:53:00;;;;;;;15.25;8.25;;;13.30;99.90;;;;;;5378936;26;20451;-85
2024/04/13 05:55:25;;;;;;;14.60;9.00;;;13.30;99.90;;;;;;5372915;26;19993;-86
2024/04/13 05:57:51;;;;;;;12.23;8.82;;;13.40;99.90;;;;;;5366635;26;20031;-86
2024/04/13 06:00:16;;;;;;;20.35;9.30;;;13.50;99.90;;;;;;5381170;26;19996;-85
2024/04/13 06:02:42;;;;;;;15.18;8.77;;;13.50;99.90;;;;;;5366571;26;20001;-85
2024/04/13 06:05:07;;;;;;;13.45;8.75;;;13.60;99.90;;;;;;5366486;26;20005;-85
2024/04/13 06:07:33;;;;;;;11.20;8.40;;;13.60;99.90;;;;;;5375731;26;19996;-85
2024/04/13 06:09:59;;;;;;;13.07;8.90;;;13.70;99.90;;;;;;5367986;26;20001;-85
2024/04/13 06:12:24;;;;;;;14.15;8.98;;;13.70;99.90;;;;;;5376057;26;20034;-86
2024/04/13 06:14:50;;;;;;;16.08;9.23;;;13.80;99.90;;;;;;5380285;26;20463;-86
2024/04/13 06:17:16;;;;;;;16.63;8.93;;;13.80;99.90;;;;;;5384699;26;20008;-85
2024/04/13 06:19:42;;;;;;;14.75;9.00;;;13.80;99.90;;;;;;5376313;26;20007;-86
2024/04/13 06:22:10;;;;;;;14.10;10.10;;;14.00;99.90;;;;;;5368796;26;19996;-86
2024/04/13 06:24:36;;;;;;;15.77;9.48;;;14.00;99.90;;;;;;5362148;26;20461;-85
2024/04/13 06:27:03;;;;;;;13.40;8.50;;;14.10;99.90;;;;;;5379095;26;20000;-85
2024/04/13 06:29:29;;;;;;;16.98;10.57;;;14.20;99.90;;;;;;5372558;26;20330;-86
2024/04/13 06:31:55;;;;;;;14.95;9.00;;;14.30;99.90;;;;;;5376383;26;20000;-85
2024/04/13 06:34:21;;;;;;;15.73;10.15;;;14.40;99.90;;;;;;5353655;26;19997;-86
2024/04/13 06:36:47;;;;;;;14.32;9.32;;;14.60;99.90;;;;;;5352401;26;20469;-85
2024/04/13 06:39:14;;;;;;;12.27;8.93;;;14.70;99.90;;;;;;5354549;26;20012;-85
2024/04/13 06:41:43;;;;;;;15.32;9.27;;;14.90;99.90;;;;;;5379375;26;20000;-85
2024/04/13 06:44:09;;;;;;;15.23;9.90;;;15.00;99.90;;;;;;5379082;26;20069;-85
2024/04/13 06:46:34;;;;;;;13.18;9.43;;;15.10;99.90;;;;;;5381274;26;20012;-86
2024/04/13 06:49:00;;;;;;;15.75;9.10;;;15.20;99.90;;;;;;5367145;26;19997;-85
2024/04/13 06:51:26;;;;;;;18.67;10.32;;;15.30;99.90;;;;;;5380432;26;20078;-86
2024/04/13 06:53:52;;;;;;;17.85;10.05;;;15.40;99.90;;;;;;5382900;26;20011;-85
2024/04/13 06:56:19;;;;;;;14.32;8.35;;;15.40;99.90;;;;;;5374215;26;19996;-84
2024/04/13 06:58:45;;;;;;;12.70;8.85;;;15.50;99.90;;;;;;5379182;26;19996;-85
2024/04/13 07:01:11;;;;;;;17.42;9.70;;;15.60;99.90;;;;;;5368165;26;20023;-84
2024/04/13 07:03:36;;;;;;;13.85;8.88;;;15.70;99.90;;;;;;5348495;26;20086;-85
2024/04/13 07:06:04;;;;;;;15.48;10.07;;;15.80;99.90;;;;;;5364202;26;19996;-85
2024/04/13 07:08:30;;;;;;;13.63;9.02;;;15.90;99.90;;;;;;5353949;26;20001;-85
2024/04/13 07:10:56;;;;;;;15.00;8.77;;;16.00;99.90;;;;;;5378403;26;19996;-84
2024/04/13 07:13:23;;;;;;;12.50;8.82;;;16.10;99.90;;;;;;5358238;26;20059;-85
2024/04/13 07:15:49;;;;;;;20.00;9.88;;;16.20;99.90;;;;;;5367403;26;20014;-85
2024/04/13 07:18:15;;;;;;;15.65;9.20;;;16.30;99.90;;;;;;5375852;26;20000;-85
2024/04/13 07:20:44;;;;;;;11.50;9.25;;;16.30;99.90;;;;;;5362284;26;20019;-85
2024/04/13 07:23:10;;;;;;;15.43;9.55;;;16.50;99.90;;;;;;5373413;26;20019;-84
2024/04/13 07:25:35;;;;;;;12.82;8.27;;;16.60;99.90;;;;;;5357869;26;20449;-85
2024/04/13 07:28:01;;;;;;;12.02;8.00;;;16.70;99.90;;;;;;5363229;26;20012;-85
2024/04/13 07:30:26;;;;;;;14.70;8.52;;;16.80;99.90;;;;;;5354967;26;20079;-85
2024/04/13 07:32:52;;;;;;;12.70;7.38;;;16.90;99.90;;;;;;5368165;26;20464;-85
2024/04/13 07:35:17;;;;;;;10.70;7.93;;;17.00;99.90;;;;;;5381593;26;20098;-85
2024/04/13 07:37:43;;;;;;;9.73;7.05;;;17.10;99.90;;;;;;5355472;26;20012;-85
2024/04/13 07:40:09;;;;;;;12.05;6.80;;;17.20;99.90;;;;;;5345285;26;20001;-85
2024/04/13 07:42:35;;;;;;;13.02;7.45;;;17.40;99.90;;;;;;5362941;26;20077;-85
2024/04/13 07:45:00;;;;;;;12.63;7.30;;;17.50;99.90;;;;;;5363815;26;19997;-85
2024/04/13 07:47:26;;;;;;;10.38;6.45;;;17.60;99.90;;;;;;5381940;26;20341;-85
2024/04/13 07:49:52;;;;;;;12.90;7.45;;;17.70;99.90;;;;;;5380287;26;19993;-84
2024/04/13 07:52:18;;;;;;;10.85;6.70;;;17.80;99.90;;;;;;5353451;26;20001;-86
2024/04/13 07:54:44;;;;;;;11.88;6.30;;;17.80;99.90;;;;;;5373438;26;20018;-85
2024/04/13 07:57:10;;;;;;;10.80;7.22;;;17.80;99.90;;;;;;5369900;26;20000;-84
2024/04/13 07:59:36;;;;;;;9.75;5.97;;;17.80;99.90;;;;;;5369561;26;20074;-85
2024/04/13 08:02:01;;;;;;;12.18;6.57;;;17.90;99.90;;;;;;5382481;26;20004;-85
2024/04/13 08:04:27;;;;;;;9.90;5.68;;;18.00;99.90;;;;;;5380251;26;20343;-84
2024/04/13 08:06:52;;;;;;;8.05;6.30;;;18.00;99.90;;;;;;5380555;26;19996;-83
2024/04/13 08:09:18;;;;;;;12.38;6.10;;;18.10;99.90;;;;;;5369211;26;20011;-85
2024/04/13 08:11:43;;;;;;;8.40;5.38;;;18.20;99.90;;;;;;5380943;26;20414;-86
2024/04/13 08:14:09;;;;;;;9.50;5.15;;;18.30;99.90;;;;;;5382730;26;20000;-82
2024/04/13 08:16:35;;;;;;;9.57;5.35;;;18.30;99.90;;;;;;5379233;26;20015;-82
2024/04/13 08:19:00;;;;;;;9.23;5.50;;;18.40;99.90;;;;;;5364485;26;20000;-82
2024/04/13 08:21:26;;;;;;;10.05;5.25;;;18.40;99.90;;;;;;5370502;26;20004;-83
2024/04/13 08:23:51;;;;;;;7.97;4.95;;;18.50;99.90;;;;;;5370286;26;20008;-83
2024/04/13 08:26:17;;;;;;;6.93;4.95;;;18.50;99.90;;;;;;5377392;26;20402;-83
2024/04/13 08:28:42;;;;;;;7.78;4.90;;;18.50;99.90;;;;;;5372369;26;20016;-84
2024/04/13 08:31:08;;;;;;;8.63;5.10;;;18.60;99.90;;;;;;5354796;26;20000;-82
2024/04/13 08:33:34;;;;;;;9.45;5.65;;;18.60;99.90;;;;;;5379748;26;20008;-83
2024/04/13 08:36:04;;;;;;;8.27;5.63;;;18.70;99.90;;;;;;5367842;26;20460;-82
2024/04/13 08:38:33;;;;;;;9.38;5.85;;;18.80;99.90;;;;;;5380941;26;20008;-82
2024/04/13 08:41:06;;;;;;;8.23;5.28;;;18.80;99.90;;;;;;5380372;26;20015;-82
2024/04/13 08:43:32;;;;;;;9.93;6.30;;;18.90;99.90;;;;;;5364780;26;20079;-83
2024/04/13 08:46:04;;;;;;;11.40;6.10;;;19.10;99.90;;;;;;5346994;26;20001;-83
2024/04/13 08:48:31;;;;;;;;;;;19.20;99.90;;;;;;5372463;26;20440;-82
2024/04/13 08:50:58;;;;;;;13.38;5.53;;;19.20;99.90;;;;;;5377631;26;19941;-82
2024/04/13 08:53:29;;;;;;;11.18;6.20;;;19.20;99.90;;;;;;5371288;26;19996;-82
2024/04/13 08:55:56;;;;;;;11.32;5.88;;;19.30;99.90;;;;;;5375940;26;20358;-84
2024/04/13 08:58:22;;;;;;;12.13;5.78;;;19.40;99.90;;;;;;5381935;26;20001;-85
2024/04/13 09:00:52;;;;;;;8.85;5.70;;;19.60;99.90;;;;;;5369408;26;20012;-85
2024/04/13 09:03:21;;;;;;;9.02;5.28;;;19.70;99.90;;;;;;5374835;26;20004;-84
2024/04/13 09:05:46;;;;;;;10.07;6.00;;;19.80;99.90;;;;;;5377927;26;20000;-84
2024/04/13 09:08:14;;;;;;;9.98;5.90;;;19.80;99.90;;;;;;5363194;26;20001;-83
2024/04/13 09:10:42;;;;;;;11.05;6.15;;;20.00;99.90;;;;;;5350570;26;20021;-84
2024/04/13 09:13:08;;;;;;;7.78;5.15;;;20.10;99.90;;;;;;5350405;26;20001;-84
2024/04/13 09:15:34;;;;;;;7.22;5.10;;;20.10;99.90;;;;;;5379921;26;19996;-84
2024/04/13 09:18:00;;;;;;;10.55;5.63;;;20.10;99.90;;;;;;5373326;26;20074;-92
2024/04/13 09:20:26;;;;;;;10.02;5.68;;;20.20;99.90;;;;;;5396394;26;20000;-93
2024/04/13 09:22:54;;;;;;;13.43;5.60;;;20.20;99.90;;;;;;5360345;26;20001;-92
2024/04/13 09:25:22;;;;;;;10.13;5.15;;;20.30;99.90;;;;;;5366597;26;20039;-91
2024/04/13 09:28:02;;;;;;;8.77;5.13;;;20.30;99.90;;;;;;5365983;21;20029;-87
2024/04/13 09:30:28;;;;;;;9.15;5.97;;;20.50;99.90;;;;;;5311699;26;20093;-90
2024/04/13 09:33:06;;;;;;;10.05;6.38;;;20.60;99.90;;;;;;5313359;26;20013;-91
2024/04/13 09:35:33;;;;;;;8.48;5.72;;;20.60;99.90;;;;;;5310762;26;20453;-90
2024/04/13 09:38:00;;;;;;;8.02;4.95;;;20.70;99.90;;;;;;5312642;26;20008;-89
2024/04/13 09:40:26;;;;;;;9.40;5.35;;;20.80;99.90;;;;;;5338605;26;20318;-91
2024/04/13 09:42:52;;;;;;;8.68;5.38;;;20.90;99.90;;;;;;5293086;26;20009;-88
2024/04/13 09:45:18;;;;;;;12.82;5.15;;;21.00;99.90;;;;;;5299020;26;20001;-92
2024/04/13 09:47:47;;;;;;;10.13;5.40;;;21.00;99.90;;;;;;5311428;26;20016;-88
2024/04/13 09:50:13;;;;;;;10.85;5.47;;;21.00;99.90;;;;;;5311128;26;20014;-94
2024/04/13 09:52:39;;;;;;;9.10;4.90;;;21.10;99.90;;;;;;5346635;26;20009;-93
2024/04/13 09:55:05;;;;;;;10.85;5.00;;;21.10;99.90;;;;;;5331224;26;20008;-93
2024/04/13 09:57:30;;;;;;;8.35;5.05;;;21.20;99.90;;;;;;5339905;26;20463;-94
2024/04/13 09:59:56;;;;;;;9.05;4.57;;;21.30;99.90;;;;;;5327972;26;20002;-93
2024/04/13 10:02:22;;;;;;;8.63;4.35;;;21.40;99.90;;;;;;5317397;26;20008;-94
2024/04/13 10:04:48;;;;;;;8.98;4.45;;;21.40;99.90;;;;;;5308551;26;20006;-94
2024/04/13 10:07:14;;;;;;;6.45;4.10;;;21.50;99.90;;;;;;5331737;26;20012;-93
2024/04/13 10:09:50;;;;;;;9.63;4.30;;;21.50;99.90;;;;;;5311979;26;20020;-93
2024/04/13 10:12:24;;;;;;;6.53;3.55;;;21.70;99.90;;;;;;5323660;26;20008;-92
2024/04/13 10:14:51;;;;;;;9.43;3.03;;;21.70;99.90;;;;;;5321390;26;20454;-94
2024/04/13 10:17:19;;;;;;;6.18;3.03;;;21.70;99.90;;;;;;5322274;26;20002;-94
2024/04/13 10:19:45;;;;;;;6.95;3.15;;;21.70;99.90;;;;;;5311483;26;20083;-95
2024/04/13 10:22:13;;;;;;;5.95;2.95;;;21.70;99.90;;;;;;5307710;26;19997;-94
2024/04/13 10:24:45;;;;;;;6.95;3.13;;;21.80;99.90;;;;;;5295915;27;20346;-93
2024/04/13 10:27:12;;;;;;;5.45;3.15;;;21.90;99.90;;;;;;5340418;26;20005;-94
2024/04/13 10:29:41;;;;;;;8.82;3.53;;;22.00;99.90;;;;;;5326532;26;20038;-95
2024/04/13 10:32:17;;;;;;;7.05;2.70;;;22.10;99.90;;;;;;5308105;26;20014;-94
2024/04/13 10:34:44;;;;;;;4.97;2.83;;;22.20;99.90;;;;;;5328590;26;20016;-96
2024/04/13 10:37:42;;;;;;;9.65;2.78;;;22.20;99.90;;;;;;5306003;26;20002;-92
2024/04/13 10:40:08;;;;;;;7.45;3.03;;;22.30;99.90;;;;;;5261932;27;20029;-92
2024/04/13 10:42:41;;;;;;;6.72;2.67;;;22.30;99.90;;;;;;5317295;26;20005;-92
2024/04/13 10:45:17;;;;;;;7.63;3.08;;;22.50;99.90;;;;;;5334059;26;20013;-92
2024/04/13 10:47:44;;;;;;;6.65;2.33;;;22.50;99.90;;;;;;5313052;26;20016;-92
2024/04/13 10:50:16;;;;;;;5.72;2.58;;;22.50;99.90;;;;;;5310191;27;19997;-90
2024/04/13 10:52:43;;;;;;;6.15;2.60;;;22.60;99.90;;;;;;5303316;26;20006;-92
2024/04/13 10:55:18;;;;;;;5.35;2.10;;;22.60;99.90;;;;;;5309637;26;20002;-91
2024/04/13 10:57:47;;;;;;;3.55;1.88;;;22.70;99.90;;;;;;5312986;26;19998;-92
2024/04/13 11:00:13;;;;;;;4.32;2.03;;;22.70;99.90;;;;;;5304212;26;20439;-92
2024/04/13 11:02:39;;;;;;;4.28;1.60;;;22.60;99.90;;;;;;5310133;26;19999;-92
2024/04/13 11:05:05;;;;;;;5.68;1.73;;;22.60;99.90;;;;;;5310414;27;19998;-92
2024/04/13 11:07:31;;;;;;;5.85;2.40;;;22.60;99.90;;;;;;5312467;26;19997;-92
2024/04/13 11:09:57;;;;;;;5.95;1.90;;;22.70;99.90;;;;;;5309056;27;20053;-92
2024/04/13 11:12:23;;;;;;;7.55;2.08;;;22.70;99.90;;;;;;5316737;26;20321;-92
2024/04/13 11:14:49;;;;;;;6.97;1.88;;;22.80;99.90;;;;;;5320195;26;20017;-92
2024/04/13 11:17:15;;;;;;;5.70;1.42;;;22.90;99.90;;;;;;5316184;26;20059;-91
2024/04/13 11:19:42;;;;;;;3.70;1.88;;;23.10;99.90;;;;;;5336095;26;20016;-92
2024/04/13 11:22:09;;;;;;;3.38;1.30;;;23.10;99.90;;;;;;5330369;26;20002;-91
2024/04/13 11:24:37;;;;;;;5.25;1.40;;;23.00;99.90;;;;;;5324673;26;20002;-91
2024/04/13 11:27:03;;;;;;;3.65;1.10;;;22.90;99.90;;;;;;5315678;26;20002;-92
2024/04/13 11:29:28;;;;;;;5.47;0.93;;;22.90;99.90;;;;;;5312668;27;20009;-91
2024/04/13 11:31:55;;;;;;;5.90;1.10;;;23.00;99.90;;;;;;5311442;26;20005;-92
2024/04/13 11:34:23;;;;;;;5.03;0.90;;;23.00;99.90;;;;;;5321306;26;20001;-92
2024/04/13 11:36:49;;;;;;;3.28;1.17;;;23.00;99.90;;;;;;5310567;26;20075;-92
2024/04/13 11:39:15;;;;;;;4.60;1.05;;;23.10;99.90;;;;;;5326139;26;20009;-91
2024/04/13 11:41:41;;;;;;;2.60;1.00;;;23.10;99.90;;;;;;5310153;26;20016;-91
2024/04/13 11:44:07;;;;;;;3.78;0.80;;;23.30;99.90;;;;;;5310333;26;20072;-91
2024/04/13 11:46:33;;;;;;;3.03;0.65;;;23.30;99.90;;;;;;5314960;26;20010;-91
2024/04/13 11:48:59;;;;;;;6.97;1.38;;;23.40;99.60;;;;;;5310008;26;20079;-89
2024/04/13 11:51:27;;;;;;;3.70;1.33;;;23.40;99.50;;;;;;5294899;26;20010;-90
2024/04/13 11:53:54;;;;;;;4.05;1.00;;;23.50;99.30;;;;;;5308905;26;20013;-90
2024/04/13 11:56:20;;;;;;;4.35;0.80;;;23.60;98.20;;;;;;5309869;26;20006;-90
2024/04/13 11:58:49;;;;;;;5.00;0.90;;;23.60;98.30;;;;;;5309909;26;20076;-90
2024/04/13 12:01:18;;;;;;;6.03;1.10;;;23.70;98.30;;;;;;5309652;26;20009;-92
2024/04/13 12:03:43;;;;;;;6.68;1.10;;;23.70;97.10;;;;;;5308523;26;20327;-90
2024/04/13 12:06:09;;;;;;;3.78;0.82;;;23.70;96.70;;;;;;5310045;27;20038;-92
2024/04/13 12:08:35;;;;;;;5.28;0.85;;;23.60;96.50;;;;;;5310079;26;19998;-91
2024/04/13 12:11:00;;;;;;;4.93;1.42;;;23.60;96.80;;;;;;5309518;26;19993;-91
2024/04/13 12:13:26;;;;;;;8.13;1.15;;;23.60;96.20;;;;;;5304827;26;20021;-91
2024/04/13 12:15:52;;;;;;;4.97;1.00;;;23.60;96.20;;;;;;5311598;26;20017;-91
2024/04/13 12:18:18;;;;;;;3.25;0.90;;;23.60;96.30;;;;;;5315623;26;20008;-91
2024/04/13 12:20:44;;;;;;;3.47;0.80;;;23.70;96.20;;;;;;5311943;26;20022;-91
2024/04/13 12:23:10;;;;;;;3.10;1.50;;;23.70;96.10;;;;;;5308838;26;20037;-91
2024/04/13 12:25:36;;;;;;;6.88;1.42;;;23.70;95.70;;;;;;5310595;26;20013;-92
2024/04/13 12:28:04;;;;;;;5.75;1.30;;;23.50;95.80;;;;;;5309041;26;20041;-89
2024/04/13 12:30:30;;;;;;;3.15;1.10;;;23.50;96.70;;;;;;5305506;26;20013;-89
2024/04/13 12:32:55;;;;;;;3.13;1.40;;;23.60;96.30;;;;;;5318546;26;20793;-88
2024/04/13 12:35:21;;;;;;;3.15;1.17;;;23.60;96.70;;;;;;5319662;26;20014;-87
2024/04/13 12:37:47;;;;;;;6.35;1.55;;;23.70;96.50;;;;;;5309950;26;20002;-88
2024/04/13 12:40:19;;;;;;;4.35;1.30;;;23.70;96.70;;;;;;5304535;27;20041;-87